Time;durP1;ratioP1;P1;durP2;ratioP2;P2;SDS_P1;SDS_P2;PMS_P1;PMS_P2;Temp;Humidity;BMP_temperature;BMP_pressure;BME280_temperature;BME280_humidity;BME280_pressure;Samples;Min_cycle;Max_cycle;Signal;HPM_P1;HPM_P2
2023/01/14 00:02:06;;;;;;;20.08;15.07;;;8.70;96.70;;;;;;4983134;28;20153;-74
2023/01/14 00:04:34;;;;;;;21.95;15.32;;;8.60;96.70;;;;;;4980689;28;20054;-75
2023/01/14 00:07:02;;;;;;;24.25;16.52;;;8.70;96.70;;;;;;4973102;28;20161;-74
2023/01/14 00:09:30;;;;;;;23.63;17.20;;;8.70;96.70;;;;;;4981690;28;20046;-75
2023/01/14 00:11:58;;;;;;;23.80;16.63;;;8.50;96.70;;;;;;4983201;28;20042;-75
2023/01/14 00:14:30;;;;;;;24.75;16.70;;;8.30;96.70;;;;;;4973090;28;20061;-75
2023/01/14 00:16:59;;;;;;;20.50;15.10;;;8.30;96.70;;;;;;4974002;28;21252;-75
2023/01/14 00:19:27;;;;;;;18.33;12.70;;;8.20;96.70;;;;;;4980855;28;20069;-74
2023/01/14 00:21:55;;;;;;;19.58;13.48;;;8.00;96.70;;;;;;4970802;28;20054;-75
2023/01/14 00:24:23;;;;;;;21.98;15.45;;;7.80;96.70;;;;;;4963680;28;20421;-75
2023/01/14 00:26:53;;;;;;;25.13;16.60;;;7.90;96.70;;;;;;4981704;28;20046;-74
2023/01/14 00:29:23;;;;;;;20.88;14.80;;;8.10;96.70;;;;;;4974785;28;20050;-75
2023/01/14 00:31:55;;;;;;;20.27;13.70;;;8.10;96.70;;;;;;4968073;28;20046;-74
2023/01/14 00:34:25;;;;;;;15.93;11.88;;;8.20;96.70;;;;;;4969728;28;20365;-73
2023/01/14 00:36:54;;;;;;;19.27;12.20;;;8.20;96.70;;;;;;4984273;28;20456;-74
2023/01/14 00:39:22;;;;;;;15.88;12.27;;;8.20;96.70;;;;;;4970172;28;20043;-74
2023/01/14 00:41:50;;;;;;;23.63;15.93;;;8.00;96.70;;;;;;4982106;28;20070;-74
2023/01/14 00:44:19;;;;;;;17.50;11.27;;;7.90;96.70;;;;;;4967496;28;20054;-74
2023/01/14 00:46:48;;;;;;;18.20;11.23;;;7.90;96.70;;;;;;4984604;28;20050;-74
2023/01/14 00:49:19;;;;;;;29.88;18.30;;;8.00;96.70;;;;;;5000766;28;20046;-74
2023/01/14 00:51:47;;;;;;;23.95;17.23;;;8.00;96.70;;;;;;4984987;28;20464;-74
2023/01/14 00:54:15;;;;;;;19.25;14.25;;;7.80;96.70;;;;;;4976716;28;20053;-75
2023/01/14 00:56:43;;;;;;;25.92;17.52;;;7.70;96.70;;;;;;4972982;28;20054;-74
2023/01/14 00:59:16;;;;;;;24.13;15.82;;;7.80;96.70;;;;;;4966534;28;20054;-74
2023/01/14 01:01:45;;;;;;;25.30;15.85;;;7.90;96.70;;;;;;4977822;28;20153;-73
2023/01/14 01:04:13;;;;;;;23.67;15.32;;;8.00;96.70;;;;;;4983785;28;20041;-74
2023/01/14 01:06:42;;;;;;;19.58;14.45;;;8.10;96.70;;;;;;4974295;28;20047;-74
2023/01/14 01:09:09;;;;;;;19.02;13.40;;;8.10;96.70;;;;;;4967183;28;20457;-74
2023/01/14 01:11:39;;;;;;;15.80;11.77;;;8.20;96.70;;;;;;4971526;28;20046;-74
2023/01/14 01:14:06;;;;;;;17.42;11.93;;;8.20;96.70;;;;;;4985184;28;20160;-74
2023/01/14 01:16:34;;;;;;;16.88;11.77;;;8.20;96.70;;;;;;4984680;28;20053;-73
2023/01/14 01:19:02;;;;;;;14.70;10.63;;;8.10;96.70;;;;;;4984229;28;20050;-74
2023/01/14 01:21:29;;;;;;;18.70;10.52;;;8.10;96.70;;;;;;4977854;28;20062;-74
2023/01/14 01:23:59;;;;;;;13.70;9.73;;;8.10;96.70;;;;;;4983621;28;20113;-74
2023/01/14 01:26:26;;;;;;;12.77;9.77;;;8.10;96.70;;;;;;4979737;28;20523;-73
2023/01/14 01:28:55;;;;;;;12.32;8.85;;;8.00;96.70;;;;;;4968926;28;20137;-74
2023/01/14 01:31:26;;;;;;;10.38;8.48;;;7.90;96.70;;;;;;4965528;28;20499;-74
2023/01/14 01:33:54;;;;;;;12.07;8.80;;;7.90;96.70;;;;;;4970775;28;20070;-74
2023/01/14 01:36:24;;;;;;;12.68;8.73;;;8.00;96.70;;;;;;4966448;28;20070;-74
2023/01/14 01:38:52;;;;;;;12.95;9.30;;;8.00;96.70;;;;;;4965223;28;20377;-74
2023/01/14 01:41:23;;;;;;;11.05;8.25;;;8.00;96.70;;;;;;4978511;28;20152;-74
2023/01/14 01:44:00;;;;;;;12.27;8.50;;;7.90;96.70;;;;;;4964606;28;20055;-74
2023/01/14 01:46:27;;;;;;;;;;;7.90;96.70;;;;;;4969103;28;20410;-73
2023/01/14 01:49:00;;;;;;;11.98;8.23;;;7.90;96.70;;;;;;4987815;28;20040;-73
2023/01/14 01:51:32;;;;;;;11.98;8.20;;;8.00;96.70;;;;;;4973083;28;20050;-74
2023/01/14 01:54:01;;;;;;;15.00;8.18;;;8.00;96.70;;;;;;4967221;28;20046;-74
2023/01/14 01:56:34;;;;;;;10.90;7.68;;;8.00;96.70;;;;;;4971603;28;20706;-73
2023/01/14 01:59:08;;;;;;;8.82;7.72;;;7.90;96.70;;;;;;4975147;28;20057;-74
2023/01/14 02:01:37;;;;;;;10.85;7.28;;;7.90;96.70;;;;;;4980951;28;20130;-74
2023/01/14 02:04:06;;;;;;;10.63;7.43;;;7.90;96.70;;;;;;4977931;28;20106;-75
2023/01/14 02:06:36;;;;;;;10.18;7.32;;;7.80;96.70;;;;;;4971191;28;20043;-74
2023/01/14 02:09:05;;;;;;;10.32;7.63;;;7.80;96.70;;;;;;4973111;28;20210;-74
2023/01/14 02:11:51;;;;;;;10.15;7.22;;;7.80;96.70;;;;;;4975877;28;20045;-74
2023/01/14 02:14:35;;;;;;;9.15;7.32;;;7.80;96.70;;;;;;4978183;28;20507;-74
2023/01/14 02:17:13;;;;;;;9.77;7.22;;;7.90;96.70;;;;;;4973729;28;20050;-74
2023/01/14 02:20:03;;;;;;;9.95;7.07;;;7.90;96.70;;;;;;4964899;28;20106;-73
2023/01/14 02:22:43;;;;;;;9.68;7.25;;;7.80;96.70;;;;;;4976121;28;20466;-74
2023/01/14 02:25:41;;;;;;;9.43;7.03;;;7.70;96.70;;;;;;4959096;28;20090;-74
2023/01/14 02:28:23;;;;;;;10.70;7.22;;;7.70;96.70;;;;;;4981112;28;20774;-74
2023/01/14 02:31:05;;;;;;;8.77;7.07;;;7.80;96.70;;;;;;4972951;28;20058;-74
2023/01/14 02:33:43;;;;;;;8.40;6.75;;;7.80;96.70;;;;;;4978668;28;20046;-74
2023/01/14 02:36:23;;;;;;;9.85;7.53;;;7.70;96.70;;;;;;4983191;28;20116;-74
2023/01/14 02:39:01;;;;;;;9.35;6.43;;;7.50;96.70;;;;;;4990131;28;20162;-75
2023/01/14 02:44:27;;;;;;;8.48;6.55;;;7.30;96.70;;;;;;4982118;28;20061;-74
2023/01/14 02:47:00;;;;;;;10.10;7.70;;;7.20;96.70;;;;;;4963838;28;20055;-74
2023/01/14 02:49:33;;;;;;;12.13;8.35;;;7.20;96.70;;;;;;4965775;28;20221;-74
2023/01/14 02:52:05;;;;;;;13.07;8.45;;;7.00;96.70;;;;;;4979486;28;20057;-73
2023/01/14 02:54:33;;;;;;;12.68;8.13;;;7.00;96.70;;;;;;4976183;28;20157;-75
2023/01/14 02:57:19;;;;;;;12.43;7.95;;;7.20;96.70;;;;;;4982303;28;20042;-74
2023/01/14 02:59:53;;;;;;;10.98;8.77;;;7.30;96.70;;;;;;4997507;28;20054;-74
2023/01/14 03:02:51;;;;;;;12.00;9.35;;;7.50;96.70;;;;;;4972096;28;20043;-74
2023/01/14 03:05:37;;;;;;;13.43;9.20;;;7.60;96.70;;;;;;4958052;28;20051;-74
2023/01/14 03:08:17;;;;;;;13.68;8.88;;;7.60;96.70;;;;;;4974010;28;20112;-73
2023/01/14 03:10:52;;;;;;;13.75;8.80;;;7.60;96.70;;;;;;4980469;28;20150;-73
2023/01/14 03:13:28;;;;;;;12.45;9.02;;;7.60;96.70;;;;;;4963767;28;20050;-75
2023/01/14 03:16:01;;;;;;;14.88;9.73;;;7.70;96.70;;;;;;4973215;28;20058;-75
2023/01/14 03:18:38;;;;;;;11.35;8.25;;;7.70;96.70;;;;;;4969653;28;20133;-75
2023/01/14 03:21:11;;;;;;;12.82;9.27;;;7.80;96.70;;;;;;4969356;28;20054;-74
2023/01/14 03:23:45;;;;;;;11.93;8.27;;;7.80;96.70;;;;;;4972141;28;20053;-74
2023/01/14 03:26:14;;;;;;;10.57;7.70;;;7.80;96.70;;;;;;4963748;28;20416;-74
2023/01/14 03:28:50;;;;;;;8.95;7.47;;;7.90;96.70;;;;;;4974809;28;20049;-74
2023/01/14 03:31:22;;;;;;;8.07;6.93;;;7.90;96.70;;;;;;4976265;28;20090;-74
2023/01/14 03:33:56;;;;;;;8.77;6.80;;;7.90;96.70;;;;;;4965518;28;20066;-74
2023/01/14 03:36:27;;;;;;;9.82;7.32;;;7.90;96.70;;;;;;4995797;28;20055;-75
2023/01/14 03:39:00;;;;;;;9.10;6.15;;;7.80;96.70;;;;;;4964515;28;20386;-74
2023/01/14 03:44:20;;;;;;;9.20;7.30;;;7.80;96.70;;;;;;4966416;28;20047;-74
2023/01/14 03:46:48;;;;;;;9.85;6.50;;;7.80;96.70;;;;;;4978081;28;20050;-73
2023/01/14 03:49:18;;;;;;;8.18;6.68;;;7.80;96.70;;;;;;4964631;28;20054;-74
2023/01/14 03:51:51;;;;;;;7.40;6.28;;;7.80;96.70;;;;;;4970237;28;20051;-73
2023/01/14 03:54:24;;;;;;;10.43;6.65;;;7.80;96.70;;;;;;4988941;28;20061;-74
2023/01/14 03:56:59;;;;;;;8.77;6.97;;;7.80;96.70;;;;;;4984599;28;20058;-74
2023/01/14 03:59:33;;;;;;;10.35;6.82;;;7.80;96.70;;;;;;4983250;28;20050;-74
2023/01/14 04:02:03;;;;;;;10.88;7.05;;;7.80;96.70;;;;;;4991228;28;20066;-74
2023/01/14 04:04:34;;;;;;;9.02;6.80;;;7.70;96.70;;;;;;4981230;28;20053;-74
2023/01/14 04:07:02;;;;;;;8.50;6.97;;;7.70;96.70;;;;;;4980755;28;20046;-74
2023/01/14 04:09:30;;;;;;;9.98;7.30;;;7.70;96.70;;;;;;4981650;28;20723;-76
2023/01/14 04:11:58;;;;;;;11.05;7.57;;;7.70;96.70;;;;;;4997060;28;20138;-76
2023/01/14 04:17:12;;;;;;;12.20;7.00;;;7.70;96.70;;;;;;4976725;28;20047;-73
2023/01/14 04:19:41;;;;;;;10.98;7.40;;;7.70;96.70;;;;;;4969975;28;20304;-74
2023/01/14 04:22:09;;;;;;;8.38;7.05;;;7.70;96.70;;;;;;4971661;28;20521;-73
2023/01/14 04:24:37;;;;;;;9.23;7.10;;;7.70;96.70;;;;;;4967423;28;20101;-73
2023/01/14 04:27:05;;;;;;;8.80;6.63;;;7.60;96.70;;;;;;4974823;28;20857;-74
2023/01/14 04:29:33;;;;;;;9.63;6.97;;;7.60;96.70;;;;;;4985780;28;20515;-74
2023/01/14 04:32:01;;;;;;;8.68;6.90;;;7.50;96.70;;;;;;4975265;28;20560;-74
2023/01/14 04:34:29;;;;;;;11.43;7.75;;;7.50;96.70;;;;;;4967207;28;20138;-74
2023/01/14 04:36:59;;;;;;;8.23;6.55;;;7.50;96.70;;;;;;4969316;28;20344;-74
2023/01/14 04:39:26;;;;;;;8.45;6.05;;;7.50;96.70;;;;;;4970997;28;20155;-73
2023/01/14 04:44:43;;;;;;;7.63;6.03;;;7.40;96.70;;;;;;4981923;28;21124;-75
2023/01/14 04:47:11;;;;;;;7.43;5.65;;;7.50;96.70;;;;;;4965572;28;20113;-74
2023/01/14 04:49:39;;;;;;;7.60;5.75;;;7.60;96.70;;;;;;4965409;28;20066;-74
2023/01/14 04:52:08;;;;;;;11.57;6.50;;;7.50;96.70;;;;;;4974951;28;20081;-74
2023/01/14 04:54:36;;;;;;;7.75;5.50;;;7.50;96.70;;;;;;4973380;28;20046;-73
2023/01/14 04:57:04;;;;;;;7.30;5.22;;;7.40;96.70;;;;;;4984812;28;20106;-74
2023/01/14 04:59:32;;;;;;;8.60;5.82;;;7.50;96.70;;;;;;4985687;28;20057;-74
2023/01/14 05:02:00;;;;;;;6.47;5.35;;;7.50;96.70;;;;;;4984135;28;20093;-74
2023/01/14 05:04:30;;;;;;;7.97;5.38;;;7.50;96.70;;;;;;4984352;28;20093;-74
2023/01/14 05:07:01;;;;;;;7.15;5.68;;;7.50;96.70;;;;;;4977757;28;20492;-74
2023/01/14 05:09:30;;;;;;;7.57;5.47;;;7.50;96.70;;;;;;4973045;28;20530;-75
2023/01/14 05:11:58;;;;;;;8.02;6.05;;;7.50;96.70;;;;;;4971841;28;20118;-75
2023/01/14 05:14:26;;;;;;;8.60;6.22;;;7.40;96.70;;;;;;4973283;28;20047;-74
2023/01/14 05:16:54;;;;;;;11.35;6.20;;;7.40;96.70;;;;;;4973293;28;20108;-74
2023/01/14 05:19:23;;;;;;;8.75;5.85;;;7.40;96.70;;;;;;4983856;28;20504;-74
2023/01/14 05:21:51;;;;;;;8.38;6.55;;;7.40;96.70;;;;;;4973949;28;20516;-74
2023/01/14 05:24:19;;;;;;;8.77;6.38;;;7.40;96.70;;;;;;4965434;28;20070;-74
2023/01/14 05:26:48;;;;;;;11.63;6.95;;;7.50;96.70;;;;;;4980263;28;20097;-74
2023/01/14 05:29:17;;;;;;;8.75;6.75;;;7.40;96.70;;;;;;4983039;28;20049;-74
2023/01/14 05:31:46;;;;;;;9.35;7.40;;;7.40;96.70;;;;;;4983377;28;20035;-74
2023/01/14 05:34:17;;;;;;;9.05;7.30;;;7.40;96.70;;;;;;4997966;28;20046;-73
2023/01/14 05:36:45;;;;;;;12.98;7.00;;;7.40;96.70;;;;;;4992586;28;20057;-74
2023/01/14 05:39:13;;;;;;;11.32;7.50;;;7.50;96.70;;;;;;4967807;28;20153;-73
2023/01/14 05:45:37;;;;;;;10.60;7.65;;;7.50;96.70;;;;;;4973695;28;20046;-73
2023/01/14 05:47:17;;;;;;;12.45;7.40;;;7.50;96.70;;;;;;4979647;28;20050;-73
2023/01/14 05:49:45;;;;;;;9.90;7.38;;;7.50;96.70;;;;;;4985491;28;20120;-73
2023/01/14 05:52:13;;;;;;;10.15;7.47;;;7.40;96.70;;;;;;4978541;28;20051;-73
2023/01/14 05:54:41;;;;;;;11.45;7.85;;;7.40;96.70;;;;;;4965317;28;20043;-73
2023/01/14 05:57:14;;;;;;;9.48;6.95;;;7.50;96.70;;;;;;4976097;28;20078;-74
2023/01/14 05:59:43;;;;;;;10.90;7.53;;;7.50;96.70;;;;;;4984024;28;20050;-73
2023/01/14 06:07:45;;;;;;;11.43;6.88;;;7.50;96.70;;;;;;4978295;28;20043;-73
2023/01/14 06:10:13;;;;;;;10.95;7.20;;;7.60;96.70;;;;;;4968228;28;20520;-74
2023/01/14 06:13:00;;;;;;;9.43;7.30;;;7.60;96.70;;;;;;4966483;28;20049;-74
2023/01/14 06:15:34;;;;;;;11.02;7.75;;;7.60;96.70;;;;;;4980053;28;20121;-74
2023/01/14 06:18:14;;;;;;;11.52;7.25;;;7.60;96.70;;;;;;4984032;28;20077;-73
2023/01/14 06:20:45;;;;;;;12.77;7.70;;;7.60;96.70;;;;;;4981804;28;20050;-72
2023/01/14 06:23:16;;;;;;;12.27;7.82;;;7.60;96.70;;;;;;4974970;28;20047;-74
2023/01/14 06:25:45;;;;;;;12.68;7.22;;;7.60;96.70;;;;;;4981779;28;20053;-74
2023/01/14 06:28:13;;;;;;;11.63;7.88;;;7.60;96.70;;;;;;4978292;28;20050;-73
2023/01/14 06:30:42;;;;;;;11.30;8.07;;;7.60;96.70;;;;;;4978157;28;20042;-74
2023/01/14 06:33:11;;;;;;;8.32;7.03;;;7.60;96.70;;;;;;4972656;28;20410;-74
2023/01/14 06:35:42;;;;;;;10.93;7.25;;;7.60;96.70;;;;;;4971159;28;20045;-73
2023/01/14 06:38:10;;;;;;;11.13;7.30;;;7.60;96.70;;;;;;4968775;28;20078;-73
2023/01/14 06:40:38;;;;;;;11.65;7.25;;;7.60;96.70;;;;;;4969760;28;20053;-73
2023/01/14 06:43:07;;;;;;;10.85;7.95;;;7.60;96.70;;;;;;4980535;28;20065;-73
2023/01/14 06:45:35;;;;;;;9.80;7.38;;;7.60;96.70;;;;;;4982234;28;20104;-73
2023/01/14 06:48:05;;;;;;;8.48;7.03;;;7.70;96.70;;;;;;4983860;28;20046;-73
2023/01/14 06:50:33;;;;;;;9.82;7.85;;;7.60;96.70;;;;;;4975227;28;20065;-73
2023/01/14 06:53:02;;;;;;;9.48;6.88;;;7.60;96.70;;;;;;4983599;28;20120;-73
2023/01/14 06:55:30;;;;;;;11.35;7.30;;;7.60;96.70;;;;;;4982556;28;20042;-72
2023/01/14 06:57:57;;;;;;;13.35;8.15;;;7.60;96.70;;;;;;4964107;28;20116;-72
2023/01/14 07:00:26;;;;;;;11.48;7.78;;;7.60;96.70;;;;;;4963971;28;20061;-72
2023/01/14 07:02:53;;;;;;;12.13;8.65;;;7.60;96.70;;;;;;4981687;28;20061;-73
2023/01/14 07:05:23;;;;;;;14.38;8.65;;;7.60;96.70;;;;;;4981859;28;20466;-74
2023/01/14 07:07:51;;;;;;;10.63;7.82;;;7.60;96.70;;;;;;4981994;28;20050;-72
2023/01/14 07:10:19;;;;;;;18.50;13.98;;;7.60;96.70;;;;;;4980823;28;20056;-73
2023/01/14 07:12:49;;;;;;;14.25;11.07;;;7.60;96.70;;;;;;4980449;28;20107;-73
2023/01/14 07:15:18;;;;;;;14.35;10.07;;;7.40;96.70;;;;;;4981576;28;20066;-73
2023/01/14 07:17:47;;;;;;;12.30;9.25;;;7.20;96.70;;;;;;4976652;28;20428;-73
2023/01/14 07:20:16;;;;;;;10.80;8.68;;;7.20;96.70;;;;;;4963982;28;20515;-74
2023/01/14 07:22:45;;;;;;;11.10;8.65;;;7.30;96.70;;;;;;4977809;28;20947;-73
2023/01/14 07:25:13;;;;;;;15.45;9.32;;;7.40;96.70;;;;;;4982895;28;20050;-72
2023/01/14 07:27:42;;;;;;;12.15;9.82;;;7.40;96.70;;;;;;4965774;28;20042;-72
2023/01/14 07:30:10;;;;;;;11.02;9.05;;;7.50;96.70;;;;;;4969033;28;20097;-74
2023/01/14 07:32:39;;;;;;;12.23;9.82;;;7.50;96.70;;;;;;4975968;28;20038;-72
2023/01/14 07:35:07;;;;;;;12.10;9.65;;;7.50;96.70;;;;;;4972737;28;20094;-72
2023/01/14 07:37:35;;;;;;;11.80;9.45;;;7.50;96.70;;;;;;4973994;28;20488;-72
2023/01/14 07:40:05;;;;;;;14.35;9.57;;;7.50;96.70;;;;;;4973987;28;20096;-72
2023/01/14 07:42:34;;;;;;;10.48;8.85;;;7.50;96.70;;;;;;4975644;28;20039;-73
2023/01/14 07:45:02;;;;;;;11.07;9.00;;;7.50;96.70;;;;;;4972775;28;20049;-72
2023/01/14 07:47:30;;;;;;;12.32;9.30;;;7.50;96.70;;;;;;4971461;28;20104;-72
2023/01/14 07:49:58;;;;;;;10.93;8.35;;;7.60;96.70;;;;;;4973129;28;20510;-73
2023/01/14 07:52:26;;;;;;;9.50;8.18;;;7.70;96.70;;;;;;4975564;28;20133;-73
2023/01/14 07:54:53;;;;;;;11.02;8.65;;;7.70;96.70;;;;;;4996810;28;20447;-73
2023/01/14 07:57:23;;;;;;;19.63;13.20;;;7.70;96.70;;;;;;4975357;28;20185;-73
2023/01/14 07:59:51;;;;;;;16.55;9.60;;;7.60;96.70;;;;;;4975718;28;20444;-74
2023/01/14 08:02:18;;;;;;;15.20;9.55;;;7.60;96.70;;;;;;4967875;28;20046;-77
2023/01/14 08:04:46;;;;;;;12.15;9.02;;;7.60;96.70;;;;;;4976689;28;20085;-76
2023/01/14 08:07:14;;;;;;;11.50;8.88;;;7.70;96.70;;;;;;4973477;28;20055;-75
2023/01/14 08:09:42;;;;;;;10.88;7.93;;;7.80;96.70;;;;;;4965080;28;20050;-77
2023/01/14 08:12:10;;;;;;;11.73;8.38;;;7.80;96.70;;;;;;4966360;28;20039;-77
2023/01/14 08:14:40;;;;;;;12.38;8.20;;;7.90;96.70;;;;;;4983482;28;20061;-75
2023/01/14 08:17:07;;;;;;;11.95;7.63;;;8.00;96.70;;;;;;4982138;28;20048;-76
2023/01/14 08:19:35;;;;;;;11.23;8.15;;;8.10;96.70;;;;;;4967473;28;20083;-76
2023/01/14 08:22:03;;;;;;;12.32;7.85;;;8.10;96.70;;;;;;4976979;28;20125;-76
2023/01/14 08:24:31;;;;;;;11.70;6.93;;;8.10;96.70;;;;;;4978716;28;20061;-76
2023/01/14 08:26:58;;;;;;;8.93;7.47;;;8.20;96.70;;;;;;4981604;28;20073;-76
2023/01/14 08:29:26;;;;;;;10.55;8.30;;;8.30;96.70;;;;;;4984357;28;20077;-78
2023/01/14 08:31:56;;;;;;;10.27;8.23;;;8.30;96.70;;;;;;4975735;28;20130;-76
2023/01/14 08:34:24;;;;;;;12.10;7.70;;;8.40;96.70;;;;;;4991673;28;20114;-75
2023/01/14 08:36:52;;;;;;;12.68;8.35;;;8.40;96.70;;;;;;4979806;28;20168;-75
2023/01/14 08:39:20;;;;;;;13.10;8.98;;;8.40;96.70;;;;;;4974165;28;20077;-75
2023/01/14 08:41:47;;;;;;;12.23;8.93;;;8.50;96.70;;;;;;4976605;28;20078;-77
2023/01/14 08:44:18;;;;;;;13.07;9.10;;;8.60;96.70;;;;;;4975120;28;20518;-76
2023/01/14 08:46:46;;;;;;;14.65;10.68;;;8.60;96.70;;;;;;4983586;28;20049;-77
2023/01/14 08:49:15;;;;;;;15.52;11.93;;;8.60;96.70;;;;;;4972200;28;20117;-76
2023/01/14 08:51:43;;;;;;;15.25;10.80;;;8.60;96.70;;;;;;4960048;28;20137;-77
2023/01/14 08:54:11;;;;;;;13.23;10.82;;;8.60;96.70;;;;;;4975919;28;20062;-77
2023/01/14 08:56:39;;;;;;;14.57;10.70;;;8.70;96.70;;;;;;4981091;28;20500;-76
2023/01/14 08:59:07;;;;;;;14.68;11.23;;;8.80;96.70;;;;;;4977408;28;20055;-76
2023/01/14 09:01:34;;;;;;;12.73;10.40;;;8.90;96.70;;;;;;4979248;28;20070;-76
2023/01/14 09:04:21;;;;;;;14.98;11.38;;;9.00;96.70;;;;;;4973482;28;20545;-76
2023/01/14 09:17:57;;;;;;;13.80;9.98;;;9.50;96.70;;;;;;4974597;28;20519;-75
2023/01/14 09:20:30;;;;;;;13.18;11.02;;;9.60;96.70;;;;;;4974432;28;20069;-74
2023/01/14 09:23:00;;;;;;;13.55;10.50;;;9.70;96.70;;;;;;4969756;28;20050;-74
2023/01/14 09:25:28;;;;;;;12.48;10.93;;;9.80;96.70;;;;;;4981377;28;20046;-74
2023/01/14 09:27:55;;;;;;;16.38;12.93;;;9.90;96.70;;;;;;4966095;28;20056;-73
2023/01/14 09:30:24;;;;;;;15.13;11.20;;;10.00;96.70;;;;;;4966004;28;20047;-74
2023/01/14 09:32:52;;;;;;;16.70;11.52;;;10.10;96.70;;;;;;4974682;28;20093;-75
2023/01/14 09:35:20;;;;;;;18.05;12.45;;;10.10;96.70;;;;;;4982812;28;20081;-75
2023/01/14 09:37:49;;;;;;;14.48;11.57;;;10.20;96.70;;;;;;4967638;28;20078;-74
2023/01/14 09:40:17;;;;;;;15.48;11.80;;;10.20;96.70;;;;;;4965240;28;20054;-75
2023/01/14 09:42:47;;;;;;;14.05;12.50;;;10.30;96.70;;;;;;4974322;28;20440;-75
2023/01/14 09:45:23;;;;;;;14.75;13.07;;;10.40;96.70;;;;;;4983959;28;20092;-75
2023/01/14 09:48:06;;;;;;;14.35;12.48;;;10.50;96.70;;;;;;4998827;28;20077;-74
2023/01/14 09:50:49;;;;;;;14.10;12.57;;;10.60;96.70;;;;;;4982629;28;20073;-74
2023/01/14 09:53:56;;;;;;;16.02;13.52;;;10.70;96.70;;;;;;4968555;28;20046;-75
2023/01/14 09:56:27;;;;;;;18.08;13.45;;;10.70;96.70;;;;;;4936076;29;20055;-75
2023/01/14 09:58:59;;;;;;;17.02;14.40;;;10.80;96.70;;;;;;4953005;28;20063;-75
2023/01/14 10:01:33;;;;;;;17.20;13.13;;;10.80;96.70;;;;;;4984150;28;20466;-74
2023/01/14 10:04:16;;;;;;;16.98;13.90;;;10.80;96.70;;;;;;4978141;28;20101;-75
2023/01/14 10:06:48;;;;;;;15.23;13.23;;;10.90;96.70;;;;;;4972564;28;20051;-74
2023/01/14 10:09:25;;;;;;;15.38;13.25;;;10.90;96.70;;;;;;4976856;28;20133;-74
2023/01/14 10:11:55;;;;;;;19.42;13.82;;;11.00;96.70;;;;;;4975503;28;20053;-74
2023/01/14 10:14:30;;;;;;;18.42;14.38;;;11.10;96.70;;;;;;4978858;28;20062;-76
2023/01/14 10:17:04;;;;;;;15.65;13.48;;;11.20;96.70;;;;;;4968357;28;20085;-77
2023/01/14 10:19:39;;;;;;;33.00;23.38;;;11.40;96.70;;;;;;4973781;28;20090;-76
2023/01/14 10:22:19;;;;;;;22.33;17.55;;;11.40;96.70;;;;;;4980315;28;20050;-75
2023/01/14 10:24:49;;;;;;;16.48;14.60;;;11.50;96.70;;;;;;4982703;28;20050;-76
2023/01/14 10:27:19;;;;;;;19.30;15.65;;;11.60;96.70;;;;;;4988685;28;20050;-77
2023/01/14 10:29:48;;;;;;;20.17;14.63;;;11.60;96.70;;;;;;4976221;28;20058;-79
2023/01/14 10:32:19;;;;;;;18.27;13.32;;;11.70;96.70;;;;;;4970642;28;20480;-77
2023/01/14 10:34:52;;;;;;;19.30;13.60;;;11.80;96.70;;;;;;4972595;28;20085;-79
2023/01/14 10:37:20;;;;;;;17.08;13.25;;;11.90;96.70;;;;;;4973096;28;20071;-79
2023/01/14 10:39:52;;;;;;;16.38;13.65;;;12.10;96.70;;;;;;4972733;28;20135;-78
2023/01/14 10:42:23;;;;;;;16.48;12.63;;;12.20;96.70;;;;;;4973404;28;20043;-78
2023/01/14 10:44:53;;;;;;;17.75;12.48;;;12.30;96.70;;;;;;4981102;28;20100;-78
2023/01/14 10:47:24;;;;;;;14.65;10.95;;;12.40;96.70;;;;;;4965692;28;20050;-78
2023/01/14 10:49:55;;;;;;;15.80;11.68;;;12.40;96.70;;;;;;4962355;28;20410;-78
2023/01/14 10:52:25;;;;;;;13.27;10.95;;;12.30;96.70;;;;;;4959264;28;20043;-79
2023/01/14 10:55:00;;;;;;;14.13;11.18;;;12.40;96.70;;;;;;4946951;28;20503;-80
2023/01/14 10:57:30;;;;;;;14.82;10.73;;;12.50;96.70;;;;;;4985204;28;20051;-77
2023/01/14 10:59:59;;;;;;;11.98;10.27;;;12.50;96.70;;;;;;4968629;28;20062;-77
2023/01/14 11:02:39;;;;;;;13.68;9.77;;;12.50;96.70;;;;;;4958628;28;20050;-75
2023/01/14 11:05:25;;;;;;;13.40;9.98;;;12.60;96.70;;;;;;4942360;28;20048;-76
2023/01/14 11:07:55;;;;;;;14.13;10.65;;;12.70;96.70;;;;;;4956268;28;20113;-76
2023/01/14 11:10:28;;;;;;;14.00;10.45;;;12.80;96.70;;;;;;4974821;28;20046;-76
2023/01/14 11:13:13;;;;;;;14.35;9.60;;;12.90;96.70;;;;;;4976724;28;20046;-76
2023/01/14 11:15:45;;;;;;;13.57;8.95;;;12.90;96.70;;;;;;4964816;28;20149;-74
2023/01/14 11:18:29;;;;;;;14.48;9.90;;;12.90;96.70;;;;;;4976552;28;20512;-75
2023/01/14 11:21:07;;;;;;;12.50;9.95;;;13.00;96.70;;;;;;4968699;28;20665;-76
2023/01/14 11:23:39;;;;;;;12.38;8.60;;;13.20;96.70;;;;;;4968396;28;20533;-76
2023/01/14 11:26:11;;;;;;;11.40;8.63;;;13.20;96.70;;;;;;4974597;28;20061;-76
2023/01/14 11:28:44;;;;;;;13.23;8.88;;;13.30;96.70;;;;;;4962181;28;20093;-76
2023/01/14 11:31:13;;;;;;;13.05;7.35;;;13.50;96.70;;;;;;4974051;28;20090;-76
2023/01/14 11:33:49;;;;;;;11.48;8.20;;;13.60;96.70;;;;;;4974857;28;20038;-75
2023/01/14 11:36:22;;;;;;;10.32;8.02;;;13.70;96.70;;;;;;4995658;28;20047;-76
2023/01/14 11:38:53;;;;;;;12.07;7.93;;;13.90;96.70;;;;;;4974218;28;20046;-76
2023/01/14 11:41:37;;;;;;;12.98;9.05;;;13.90;96.70;;;;;;4971514;28;20105;-76
2023/01/14 11:44:22;;;;;;;12.60;8.50;;;14.00;96.70;;;;;;4978749;28;20180;-76
2023/01/14 11:47:12;;;;;;;10.98;7.45;;;14.10;96.70;;;;;;4973589;28;20049;-77
2023/01/14 11:49:41;;;;;;;10.32;7.57;;;14.10;96.70;;;;;;4975681;28;20173;-76
2023/01/14 11:52:21;;;;;;;13.02;8.05;;;14.20;96.70;;;;;;4997394;28;20042;-77
2023/01/14 11:54:51;;;;;;;14.85;10.52;;;14.20;96.70;;;;;;4968378;28;20042;-78
2023/01/14 11:57:22;;;;;;;13.55;9.85;;;14.30;96.70;;;;;;4976598;28;20047;-76
2023/01/14 11:59:53;;;;;;;12.57;7.93;;;14.40;96.70;;;;;;4979328;28;20576;-76
2023/01/14 12:02:31;;;;;;;15.65;7.80;;;14.50;96.70;;;;;;4976319;28;20152;-78
2023/01/14 12:05:04;;;;;;;12.43;7.47;;;14.60;96.70;;;;;;4963183;28;20066;-79
2023/01/14 12:07:39;;;;;;;11.60;7.25;;;14.60;96.70;;;;;;4977248;28;20050;-81
2023/01/14 12:10:17;;;;;;;11.32;7.68;;;14.60;96.70;;;;;;4972214;28;20050;-79
2023/01/14 12:18:52;;;;;;;10.57;7.28;;;14.60;96.70;;;;;;4993696;28;20141;-78
2023/01/14 12:21:27;;;;;;;10.50;7.40;;;14.70;96.70;;;;;;4979203;28;20081;-78
2023/01/14 12:24:02;;;;;;;13.77;8.80;;;14.70;96.70;;;;;;4973123;28;20603;-79
2023/01/14 12:26:35;;;;;;;13.88;8.02;;;14.70;96.70;;;;;;4971521;28;20485;-78
2023/01/14 12:29:09;;;;;;;11.45;7.88;;;14.80;96.70;;;;;;4971005;28;20039;-78
2023/01/14 12:31:43;;;;;;;13.10;8.18;;;14.70;96.70;;;;;;4968435;28;20051;-77
2023/01/14 12:34:19;;;;;;;8.93;7.03;;;14.80;96.70;;;;;;4974468;28;20078;-78
2023/01/14 12:36:53;;;;;;;11.98;7.93;;;14.80;96.70;;;;;;4973230;28;20057;-77
2023/01/14 12:48:14;;;;;;;11.48;8.23;;;15.00;96.70;;;;;;4971609;28;20089;-77
2023/01/14 12:50:50;;;;;;;8.48;6.85;;;15.10;96.70;;;;;;4975964;28;20409;-77
2023/01/14 12:53:23;;;;;;;11.60;7.68;;;15.20;96.70;;;;;;4998811;28;20078;-77
2023/01/14 12:55:55;;;;;;;11.35;7.32;;;15.40;96.70;;;;;;4968876;28;20042;-77
2023/01/14 12:58:27;;;;;;;12.68;7.72;;;15.40;96.70;;;;;;4976402;28;20050;-77
2023/01/14 13:01:03;;;;;;;10.95;7.60;;;15.50;96.70;;;;;;4975315;28;20046;-79
2023/01/14 13:03:35;;;;;;;12.32;7.50;;;15.50;96.70;;;;;;4996767;28;20497;-78
2023/01/14 13:06:10;;;;;;;11.88;6.95;;;15.50;96.70;;;;;;4965441;28;20508;-77
2023/01/14 13:08:39;;;;;;;12.13;6.50;;;15.60;96.70;;;;;;4981222;28;20635;-79
2023/01/14 13:11:12;;;;;;;8.38;5.95;;;15.60;96.70;;;;;;4983140;28;20042;-79
2023/01/14 13:13:42;;;;;;;10.30;5.95;;;15.30;96.70;;;;;;4980175;28;20046;-79
2023/01/14 13:16:33;;;;;;;11.75;6.18;;;15.30;96.70;;;;;;4979894;28;20053;-79
2023/01/14 13:19:03;;;;;;;10.52;6.70;;;15.20;96.70;;;;;;4982554;28;20566;-79
2023/01/14 13:21:55;;;;;;;9.30;5.55;;;15.30;96.70;;;;;;4978957;28;20066;-79
2023/01/14 13:24:29;;;;;;;9.60;5.80;;;15.40;96.70;;;;;;4968937;28;20042;-76
2023/01/14 13:26:59;;;;;;;10.38;5.30;;;15.40;96.70;;;;;;4982002;28;20057;-80
2023/01/14 13:29:30;;;;;;;12.60;5.85;;;15.30;96.70;;;;;;4977699;28;20453;-79
2023/01/14 13:32:01;;;;;;;9.75;5.20;;;15.40;96.70;;;;;;4978669;28;20070;-78
2023/01/14 13:34:37;;;;;;;9.02;5.80;;;15.40;96.70;;;;;;4996781;28;20066;-77
2023/01/14 13:37:33;;;;;;;11.85;5.82;;;15.50;96.70;;;;;;4970502;28;20158;-78
2023/01/14 13:40:14;;;;;;;9.95;5.45;;;15.50;96.70;;;;;;4971697;28;20173;-77
2023/01/14 13:42:44;;;;;;;8.40;5.13;;;15.40;96.70;;;;;;4993053;28;20061;-78
2023/01/14 13:45:25;;;;;;;11.23;5.93;;;15.50;96.70;;;;;;4978903;28;20404;-78
2023/01/14 13:48:08;;;;;;;12.27;5.88;;;15.50;96.70;;;;;;4975036;28;20074;-78
2023/01/14 13:50:38;;;;;;;10.77;5.50;;;15.30;96.70;;;;;;4980524;28;20051;-77
2023/01/14 13:53:22;;;;;;;9.07;6.00;;;15.30;96.70;;;;;;4961010;28;20473;-76